Time;durP1;ratioP1;P1;durP2;ratioP2;P2;SDS_P1;SDS_P2;PMS_P1;PMS_P2;Temp;Humidity;BMP_temperature;BMP_pressure;BME280_temperature;BME280_humidity;BME280_pressure;Samples;Min_cycle;Max_cycle;Signal;HPM_P1;HPM_P2
2023/02/12 00:00:10;;;;;;;2.30;1.20;;;;;;;2.55;91.50;101954.52;104407;1268;98519;-75
2023/02/12 00:03:21;;;;;;;5.10;1.80;;;;;;;2.54;91.58;101957.95;104459;1268;105081;-73
2023/02/12 00:06:07;;;;;;;1.60;1.10;;;;;;;2.54;91.49;101963.63;104460;1273;100416;-74
2023/02/12 00:08:54;;;;;;;3.70;1.00;;;;;;;2.51;91.27;101973.86;107284;1272;98068;-74
2023/02/12 00:11:39;;;;;;;3.90;1.40;;;;;;;2.48;91.19;101977.95;104343;1273;99196;-75
2023/02/12 00:14:23;;;;;;;2.70;1.30;;;;;;;2.48;91.50;101981.33;104469;1269;98004;-75
2023/02/12 00:17:08;;;;;;;1.60;1.00;;;;;;;2.49;91.50;101982.27;104416;1267;102271;-76
2023/02/12 00:19:52;;;;;;;3.30;1.40;;;;;;;2.51;91.41;101985.31;104406;1272;99227;-76
2023/02/12 00:22:38;;;;;;;3.20;1.70;;;;;;;2.52;91.45;101990.52;104370;1284;98029;-75
2023/02/12 00:25:22;;;;;;;2.10;1.60;;;;;;;2.51;91.33;101995.20;104371;1267;98130;-75
2023/02/12 00:28:07;;;;;;;4.20;1.40;;;;;;;2.47;91.16;102006.38;104437;1273;99600;-75
2023/02/12 00:30:52;;;;;;;4.20;1.90;;;;;;;2.44;91.13;102014.02;104521;1267;101607;-74
2023/02/12 00:33:37;;;;;;;3.50;1.40;;;;;;;2.40;90.98;102016.87;104412;1273;99604;-75
2023/02/12 00:36:24;;;;;;;3.90;1.00;;;;;;;2.34;90.25;102025.92;104423;1267;98001;-72
2023/02/12 00:39:09;;;;;;;2.70;1.40;;;;;;;2.25;89.92;102030.20;104340;1267;98020;-76
2023/02/12 00:41:54;;;;;;;2.00;1.40;;;;;;;2.21;89.99;102036.66;104500;1268;98432;-74
2023/02/12 00:44:38;;;;;;;4.40;1.60;;;;;;;2.15;90.01;102047.23;104454;1268;102749;-76
2023/02/12 00:47:23;;;;;;;6.60;1.40;;;;;;;2.12;90.28;102039.00;104453;1273;99806;-74
2023/02/12 00:50:09;;;;;;;2.40;1.30;;;;;;;2.10;90.23;102048.30;104370;1267;98109;-74
2023/02/12 00:52:53;;;;;;;6.20;1.40;;;;;;;2.09;90.18;102062.63;104473;1267;99133;-77
2023/02/12 00:55:38;;;;;;;3.70;1.50;;;;;;;2.07;90.19;102059.95;104435;1272;98416;-74
2023/02/12 00:58:23;;;;;;;3.50;1.70;;;;;;;2.05;89.95;102062.52;104377;1273;101432;-75
2023/02/12 01:01:08;;;;;;;4.10;2.00;;;;;;;1.99;89.54;102062.23;104435;1273;99113;-76
2023/02/12 01:03:54;;;;;;;2.40;1.20;;;;;;;1.95;89.58;102068.45;104419;1268;98539;-76
2023/02/12 01:06:39;;;;;;;2.60;1.50;;;;;;;1.91;89.32;102069.77;104399;1273;96327;-75
2023/02/12 01:09:23;;;;;;;2.60;1.40;;;;;;;1.88;89.15;102075.42;104301;1271;99127;-74
2023/02/12 01:12:08;;;;;;;2.00;1.30;;;;;;;1.85;89.26;102087.52;104379;1269;102843;-77
2023/02/12 01:14:53;;;;;;;1.90;1.20;;;;;;;1.84;89.03;102090.11;104352;1273;99385;-75
2023/02/12 01:17:38;;;;;;;2.50;1.30;;;;;;;1.84;89.19;102094.88;104393;1270;99084;-75
2023/02/12 01:20:24;;;;;;;4.10;1.60;;;;;;;1.83;89.02;102094.73;104341;1267;98052;-76
2023/02/12 01:23:10;;;;;;;3.90;1.50;;;;;;;1.82;89.03;102104.69;104430;1267;99168;-74
2023/02/12 01:25:57;;;;;;;2.80;1.80;;;;;;;1.82;89.03;102104.53;104402;1273;101462;-75
2023/02/12 01:28:44;;;;;;;1.70;1.40;;;;;;;1.81;88.90;102098.94;104363;1268;99307;-76
2023/02/12 01:31:32;;;;;;;3.70;1.80;;;;;;;1.79;88.60;102099.20;104411;1273;98100;-73
2023/02/12 01:34:17;;;;;;;3.40;1.30;;;;;;;1.79;88.73;102107.84;104394;1267;97990;-76
2023/02/12 01:37:02;;;;;;;2.60;1.30;;;;;;;1.76;88.36;102112.95;104385;1267;97901;-76
2023/02/12 01:39:47;;;;;;;2.60;1.10;;;;;;;1.75;88.41;102122.71;104452;1273;103143;-75
2023/02/12 01:42:34;;;;;;;2.60;1.60;;;;;;;1.76;88.36;102129.20;104502;1272;99262;-75
2023/02/12 01:45:35;;;;;;;3.60;1.20;;;;;;;1.73;88.17;102134.64;104350;1273;99475;-76
2023/02/12 01:48:24;;;;;;;5.40;2.20;;;;;;;1.70;88.02;102123.37;104422;1267;98001;-75
2023/02/12 01:51:18;;;;;;;4.00;1.80;;;;;;;1.68;87.93;102124.73;105491;1270;98722;-75
2023/02/12 01:54:06;;;;;;;1.30;1.00;;;;;;;1.67;88.06;102131.81;104358;1268;102692;-76
2023/02/12 01:56:52;;;;;;;1.20;1.10;;;;;;;1.68;88.10;102136.56;104358;1267;99082;-75
2023/02/12 01:59:39;;;;;;;5.20;1.20;;;;;;;1.67;88.14;102149.25;104283;1268;99076;-75
2023/02/12 02:02:23;;;;;;;4.00;1.80;;;;;;;1.66;87.91;102151.62;104344;1267;97890;-75
2023/02/12 02:05:09;;;;;;;2.80;1.30;;;;;;;1.66;88.12;102154.45;104389;1272;97887;-74
2023/02/12 02:07:54;;;;;;;4.70;1.80;;;;;;;1.66;87.96;102148.45;104402;1271;101506;-75
2023/02/12 02:10:38;;;;;;;2.00;1.10;;;;;;;1.66;88.00;102153.36;104358;1273;100087;-75
2023/02/12 02:16:29;;;;;;;2.50;1.50;;;;;;;1.68;87.93;102150.23;104335;1272;97987;-75
2023/02/12 02:19:29;;;;;;;2.40;1.00;;;;;;;1.67;87.95;102163.16;104414;1271;96261;-75
2023/02/12 02:22:33;;;;;;;2.50;0.90;;;;;;;1.66;87.88;102167.69;104495;1273;102161;-74
2023/02/12 02:25:55;;;;;;;3.50;1.30;;;;;;;1.62;87.98;102168.25;104379;1267;100160;-75
2023/02/12 02:28:46;;;;;;;5.00;1.40;;;;;;;1.59;88.27;102165.60;104365;1273;98031;-75
2023/02/12 02:31:43;;;;;;;7.80;1.70;;;;;;;1.59;88.54;102174.56;104475;1270;98093;-75
2023/02/12 02:34:54;;;;;;;3.10;1.00;;;;;;;1.58;88.76;102181.11;104339;1270;97908;-75
2023/02/12 02:37:51;;;;;;;4.60;1.40;;;;;;;1.58;88.82;102188.73;104369;1273;101312;-75
2023/02/12 02:41:14;;;;;;;3.30;1.20;;;;;;;1.57;88.95;102194.41;104363;1272;99910;-76
2023/02/12 02:44:04;;;;;;;2.70;1.50;;;;;;;1.58;89.37;102199.65;104302;1268;98753;-74
2023/02/12 02:46:52;;;;;;;4.70;1.30;;;;;;;1.60;89.39;102211.12;104293;1272;98009;-74
2023/02/12 02:49:44;;;;;;;4.10;1.70;;;;;;;1.61;89.19;102223.04;104305;1273;98204;-74
2023/02/12 02:52:42;;;;;;;3.20;1.50;;;;;;;1.61;89.26;102222.19;104475;1272;101427;-76
2023/02/12 02:55:34;;;;;;;2.60;1.30;;;;;;;1.60;89.30;102226.48;104222;1267;99235;-74
2023/02/12 02:58:24;;;;;;;4.10;1.50;;;;;;;1.58;89.25;102235.38;104306;1272;98106;-75
2023/02/12 03:01:21;;;;;;;3.00;1.70;;;;;;;1.53;89.16;102245.33;104332;1271;99152;-75
2023/02/12 03:04:21;;;;;;;2.30;1.30;;;;;;;1.46;89.17;102256.30;104335;1273;98526;-75
2023/02/12 03:07:12;;;;;;;4.50;1.40;;;;;;;1.39;89.16;102259.00;104368;1268;101316;-74
2023/02/12 03:10:01;;;;;;;3.20;1.60;;;;;;;1.35;89.31;102267.50;104330;1268;99246;-75
2023/02/12 03:12:59;;;;;;;6.90;1.40;;;;;;;1.32;89.39;102270.16;104323;1274;98105;-75
2023/02/12 03:15:58;;;;;;;5.20;2.00;;;;;;;1.28;89.45;102273.05;104339;1270;98010;-74
2023/02/12 03:18:51;;;;;;;5.20;1.50;;;;;;;1.26;89.59;102280.54;104356;1270;99093;-75
2023/02/12 03:21:55;;;;;;;3.80;1.20;;;;;;;1.26;89.73;102284.57;104370;1268;102161;-75
2023/02/12 03:24:50;;;;;;;5.40;1.60;;;;;;;1.25;89.64;102282.69;104367;1273;99399;-75
2023/02/12 03:27:45;;;;;;;3.70;1.50;;;;;;;1.24;89.63;102282.77;104371;1272;97995;-74
2023/02/12 03:30:41;;;;;;;7.80;1.60;;;;;;;1.22;89.67;102285.86;104323;1268;99130;-76
2023/02/12 03:33:41;;;;;;;4.00;1.20;;;;;;;1.23;89.68;102290.58;104333;1273;99162;-76
2023/02/12 03:36:46;;;;;;;3.20;1.80;;;;;;;1.24;89.76;102295.95;104435;1273;101369;-76
2023/02/12 03:39:48;;;;;;;4.40;1.60;;;;;;;1.24;89.64;102305.65;104327;1267;100016;-76
2023/02/12 03:42:54;;;;;;;3.60;1.20;;;;;;;1.24;89.67;102314.63;104376;1273;98478;-76
2023/02/12 03:45:58;;;;;;;4.60;1.60;;;;;;;1.24;89.69;102322.03;104339;1273;98115;-75
2023/02/12 03:49:09;;;;;;;3.30;1.90;;;;;;;1.24;89.66;102325.85;104385;1272;99798;-75
2023/02/12 03:51:54;;;;;;;4.00;1.90;;;;;;;1.26;89.72;102334.38;104337;1273;103152;-75
2023/02/12 03:54:39;;;;;;;2.90;1.30;;;;;;;1.28;89.66;102335.69;104378;1267;100394;-75
2023/02/12 03:57:30;;;;;;;4.20;1.40;;;;;;;1.29;89.62;102342.46;104339;1267;98523;-76
2023/02/12 04:00:19;;;;;;;;;;;;;;;1.27;89.46;102346.45;104359;1273;98019;-76
2023/02/12 04:03:05;;;;;;;4.40;1.50;;;;;;;1.24;89.40;102353.14;104397;1273;98016;-76
2023/02/12 04:05:50;;;;;;;2.80;1.30;;;;;;;1.21;89.15;102362.45;104356;1273;101453;-75
2023/02/12 04:08:35;;;;;;;2.80;1.50;;;;;;;1.17;88.88;102369.88;104501;1268;100144;-75
2023/02/12 04:11:58;;;;;;;4.70;1.70;;;;;;;1.16;88.92;102370.83;106511;1270;98106;-75
2023/02/12 04:14:52;;;;;;;5.30;1.70;;;;;;;1.14;88.81;102372.69;104282;1267;99057;-76
2023/02/12 04:17:55;;;;;;;3.90;1.40;;;;;;;1.13;88.78;102373.67;104395;1267;99565;-74
2023/02/12 04:20:57;;;;;;;2.70;1.60;;;;;;;1.12;88.96;102373.89;104291;1273;102163;-75
2023/02/12 04:24:05;;;;;;;3.30;1.30;;;;;;;1.09;88.85;102373.32;104339;1274;99148;-74
2023/02/12 04:27:02;;;;;;;5.70;1.40;;;;;;;1.07;88.94;102380.00;104267;1273;99089;-74
2023/02/12 04:29:57;;;;;;;3.60;1.50;;;;;;;1.04;89.24;102382.06;104270;1273;98026;-76
2023/02/12 04:33:10;;;;;;;3.90;1.80;;;;;;;1.03;89.39;102386.14;104368;1267;98583;-76
2023/02/12 04:36:05;;;;;;;3.50;1.20;;;;;;;1.03;89.37;102391.59;104289;1273;102530;-76
2023/02/12 04:38:54;;;;;;;4.10;1.60;;;;;;;1.03;89.44;102398.63;104472;1273;99267;-75
2023/02/12 04:41:39;;;;;;;3.00;1.50;;;;;;;1.03;89.45;102403.02;104457;1268;99126;-75
2023/02/12 04:44:26;;;;;;;2.10;1.30;;;;;;;1.03;89.60;102410.06;104268;1273;98003;-74
2023/02/12 04:47:13;;;;;;;3.60;1.50;;;;;;;1.03;89.80;102413.42;104342;1273;98307;-76
2023/02/12 04:49:58;;;;;;;2.20;1.40;;;;;;;1.01;89.71;102411.23;104345;1267;102749;-74
2023/02/12 04:52:43;;;;;;;2.40;1.30;;;;;;;0.99;89.71;102412.06;104341;1270;100449;-73
2023/02/12 04:55:28;;;;;;;7.00;2.70;;;;;;;0.98;89.81;102415.11;104519;1274;99068;-75
2023/02/12 04:58:12;;;;;;;3.40;1.50;;;;;;;0.99;89.95;102421.94;104481;1268;97991;-74
2023/02/12 05:00:58;;;;;;;2.60;1.50;;;;;;;1.00;89.99;102425.19;104500;1272;98462;-76
2023/02/12 05:03:43;;;;;;;5.80;1.80;;;;;;;1.01;89.97;102426.38;104305;1267;101439;-76
2023/02/12 05:06:31;;;;;;;3.70;1.70;;;;;;;1.02;90.07;102427.91;104332;1273;99164;-76
2023/02/12 05:09:19;;;;;;;3.70;1.80;;;;;;;1.03;90.23;102429.77;104290;1272;99085;-75
2023/02/12 05:12:03;;;;;;;5.60;1.70;;;;;;;1.04;90.34;102431.84;104331;1267;99308;-75
2023/02/12 05:14:48;;;;;;;2.50;1.10;;;;;;;1.04;90.36;102435.02;104388;1273;98517;-75
2023/02/12 05:17:32;;;;;;;4.60;1.40;;;;;;;1.04;90.49;102441.70;104347;1272;101368;-75
2023/02/12 05:20:17;;;;;;;5.90;1.90;;;;;;;1.05;90.54;102447.08;104299;1272;99810;-75
2023/02/12 05:23:02;;;;;;;2.70;1.40;;;;;;;1.06;90.63;102448.45;104270;1273;98964;-74
2023/02/12 05:25:47;;;;;;;5.00;1.90;;;;;;;1.07;90.76;102453.88;104321;1271;97978;-75
2023/02/12 05:28:31;;;;;;;3.30;1.30;;;;;;;1.05;90.71;102451.47;104359;1273;97995;-74
2023/02/12 05:31:18;;;;;;;2.90;1.50;;;;;;;1.04;90.71;102456.98;104368;1271;102039;-75
2023/02/12 05:34:03;;;;;;;3.00;1.70;;;;;;;1.04;90.75;102458.59;104348;1273;99137;-75
2023/02/12 05:36:47;;;;;;;2.80;1.20;;;;;;;1.04;90.71;102462.63;104332;1268;97960;-74
2023/02/12 05:39:32;;;;;;;4.30;1.80;;;;;;;1.02;90.60;102472.38;104412;1267;98096;-75
2023/02/12 05:42:17;;;;;;;2.70;1.30;;;;;;;0.97;90.33;102475.31;104376;1270;97994;-74
2023/02/12 05:45:02;;;;;;;4.10;1.50;;;;;;;0.90;90.40;102476.23;104452;1268;102216;-75
2023/02/12 05:47:46;;;;;;;6.00;2.30;;;;;;;0.87;90.83;102478.66;104295;1273;100139;-74
2023/02/12 05:50:31;;;;;;;3.20;1.60;;;;;;;0.87;91.00;102486.40;104349;1267;99074;-74
2023/02/12 05:53:25;;;;;;;7.20;2.10;;;;;;;0.81;91.08;102485.98;104387;1268;99330;-75
2023/02/12 05:56:17;;;;;;;3.60;1.60;;;;;;;0.81;91.38;102491.80;104433;1270;99662;-75
2023/02/12 05:59:10;;;;;;;3.40;2.00;;;;;;;0.79;91.43;102499.25;104421;1279;101500;-74
2023/02/12 06:01:55;;;;;;;3.90;1.90;;;;;;;0.73;91.56;102505.76;104380;1273;100414;-75
2023/02/12 06:04:40;;;;;;;4.50;2.00;;;;;;;0.69;91.77;102517.01;104388;1272;98059;-75
2023/02/12 06:07:25;;;;;;;7.60;2.80;;;;;;;0.69;91.94;102522.85;104386;1273;99133;-74
2023/02/12 06:10:10;;;;;;;7.10;2.00;;;;;;;0.68;92.11;102529.21;104417;1268;98517;-75
2023/02/12 06:12:55;;;;;;;5.50;2.00;;;;;;;0.63;91.94;102529.45;104358;1271;101956;-75
2023/02/12 06:15:40;;;;;;;3.30;2.00;;;;;;;0.61;91.87;102534.66;104301;1272;100961;-74
2023/02/12 06:18:25;;;;;;;8.00;1.80;;;;;;;0.61;92.05;102542.39;104359;1272;97963;-74
2023/02/12 06:21:10;;;;;;;4.50;1.90;;;;;;;0.61;92.18;102546.08;104369;1273;98687;-74
2023/02/12 06:23:55;;;;;;;5.50;2.00;;;;;;;0.61;92.02;102547.15;104359;1273;98514;-76
2023/02/12 06:26:40;;;;;;;5.30;2.10;;;;;;;0.64;92.30;102552.45;104220;1274;102163;-74
2023/02/12 06:29:25;;;;;;;4.60;2.00;;;;;;;0.68;92.37;102561.02;104343;1272;100394;-74
2023/02/12 06:32:12;;;;;;;6.60;2.00;;;;;;;0.74;92.48;102566.52;104372;1271;98604;-75
2023/02/12 06:34:57;;;;;;;8.40;3.10;;;;;;;0.80;92.48;102570.98;104290;1272;98347;-73
2023/02/12 06:37:42;;;;;;;3.60;2.20;;;;;;;0.86;92.34;102578.27;104365;1273;98516;-74
2023/02/12 06:40:26;;;;;;;5.70;2.10;;;;;;;0.89;92.21;102581.23;104448;1272;101961;-74
2023/02/12 06:43:11;;;;;;;4.40;2.20;;;;;;;0.94;92.20;102579.75;104503;1273;99162;-74
2023/02/12 06:46:00;;;;;;;6.50;2.20;;;;;;;0.98;91.75;102585.52;104353;1267;98100;-75
2023/02/12 06:48:45;;;;;;;2.70;2.30;;;;;;;1.01;91.27;102591.52;104435;1273;97921;-74
2023/02/12 06:51:31;;;;;;;2.50;2.10;;;;;;;1.03;91.13;102588.80;104430;1273;98520;-74
2023/02/12 06:54:17;;;;;;;3.10;1.70;;;;;;;1.07;91.46;102587.17;104321;1271;103178;-74
2023/02/12 06:57:01;;;;;;;3.40;1.70;;;;;;;1.12;91.58;102589.73;104385;1273;100535;-75
2023/02/12 06:59:46;;;;;;;2.70;1.90;;;;;;;1.17;91.54;102589.14;104339;1273;99426;-75
2023/02/12 07:02:30;;;;;;;3.30;2.00;;;;;;;1.20;91.23;102588.45;104419;1272;98700;-75
2023/02/12 07:05:15;;;;;;;5.00;2.20;;;;;;;1.21;90.94;102589.99;104369;1271;98435;-74
2023/02/12 07:08:00;;;;;;;3.70;1.90;;;;;;;1.24;90.87;102595.47;104413;1273;102322;-75
2023/02/12 07:10:47;;;;;;;4.30;1.90;;;;;;;1.27;90.90;102594.61;104398;1273;99292;-74
2023/02/12 07:13:35;;;;;;;4.90;2.50;;;;;;;1.28;90.47;102600.69;106041;1268;98885;-76
2023/02/12 07:16:20;;;;;;;3.00;1.90;;;;;;;1.29;90.29;102603.62;104324;1273;97976;-74
2023/02/12 07:19:05;;;;;;;6.10;2.10;;;;;;;1.33;90.48;102602.39;104343;1272;98532;-76
2023/02/12 07:21:50;;;;;;;3.50;2.00;;;;;;;1.34;90.34;102598.65;104390;1267;103219;-74
2023/02/12 07:24:35;;;;;;;3.70;2.10;;;;;;;1.36;90.18;102597.84;104379;1272;99277;-76
2023/02/12 07:27:20;;;;;;;9.20;2.70;;;;;;;1.35;89.93;102603.86;104322;1273;98539;-75
2023/02/12 07:30:05;;;;;;;5.20;2.50;;;;;;;1.39;89.69;102610.34;104453;1273;98014;-75
2023/02/12 07:33:30;;;;;;;3.70;2.40;;;;;;;1.43;89.24;102613.65;104733;1268;97965;-88
2023/02/12 07:36:33;;;;;;;4.30;2.30;;;;;;;1.50;89.11;102620.34;105758;1272;102761;-87
2023/02/12 07:39:23;;;;;;;4.10;1.70;;;;;;;1.57;89.08;102624.20;105674;1268;99166;-84
2023/02/12 07:42:12;;;;;;;4.10;1.80;;;;;;;1.61;88.78;102625.39;105916;1273;98762;-87
2023/02/12 07:44:58;;;;;;;6.00;2.20;;;;;;;1.65;88.96;102623.05;105790;1276;98121;-86
2023/02/12 07:47:51;;;;;;;3.60;2.40;;;;;;;1.72;88.90;102623.74;105783;1268;99796;-82
2023/02/12 07:50:36;;;;;;;2.70;2.30;;;;;;;1.78;88.49;102627.30;105684;1273;111619;-77
2023/02/12 07:53:21;;;;;;;4.00;2.40;;;;;;;1.80;88.22;102625.76;105024;1273;100404;-81
2023/02/12 07:56:14;;;;;;;4.40;2.30;;;;;;;1.85;88.19;102629.03;105141;1273;98055;-83
2023/02/12 07:59:09;;;;;;;7.20;2.90;;;;;;;1.87;87.74;102628.73;105138;1267;98055;-85
2023/02/12 08:01:55;;;;;;;6.20;3.70;;;;;;;1.88;87.50;102633.07;105869;1267;96041;-80
2023/02/12 08:04:40;;;;;;;4.70;3.00;;;;;;;1.88;86.87;102636.62;104764;1273;102198;-87
2023/02/12 08:07:25;;;;;;;4.00;2.80;;;;;;;1.86;86.44;102639.03;104406;1268;100366;-76
2023/02/12 08:10:10;;;;;;;3.60;2.10;;;;;;;1.87;86.37;102643.36;104409;1270;98014;-76
2023/02/12 08:13:37;;;;;;;9.40;6.60;;;;;;;1.89;86.27;102646.96;104841;1273;98116;-88
2023/02/12 08:16:36;;;;;;;106.60;44.30;;;;;;;1.93;86.61;102647.65;105851;1267;97994;-85
2023/02/12 08:19:27;;;;;;;27.00;17.40;;;;;;;1.97;86.42;102646.89;105497;1276;102559;-83
2023/02/12 08:22:11;;;;;;;14.00;8.80;;;;;;;2.00;86.12;102646.73;105380;1267;99088;-79
2023/02/12 08:24:56;;;;;;;5.30;4.20;;;;;;;2.02;85.87;102650.64;105034;1273;99273;-85
2023/02/12 08:27:41;;;;;;;6.00;2.70;;;;;;;2.04;85.58;102651.95;104724;1276;97994;-85
2023/02/12 08:30:26;;;;;;;4.80;3.00;;;;;;;2.04;85.02;102656.23;105466;1268;97785;-88
2023/02/12 08:33:11;;;;;;;3.90;2.30;;;;;;;2.04;84.99;102664.14;105415;1272;101220;-77
2023/02/12 08:36:06;;;;;;;3.50;2.50;;;;;;;2.06;84.81;102663.30;105270;1273;99043;-79
2023/02/12 08:38:51;;;;;;;3.60;2.70;;;;;;;2.08;84.32;102661.98;104885;1281;99476;-78
2023/02/12 08:41:36;;;;;;;5.50;3.30;;;;;;;2.10;84.32;102661.52;104817;1273;97994;-79
2023/02/12 08:44:22;;;;;;;24.00;11.70;;;;;;;2.13;84.50;102661.32;105247;1272;99162;-80
2023/02/12 08:47:08;;;;;;;58.80;25.90;;;;;;;2.16;84.67;102660.45;105978;1273;101376;-79
2023/02/12 08:49:53;;;;;;;27.00;13.90;;;;;;;2.19;84.95;102662.06;106032;1273;101064;-79
2023/02/12 08:55:35;;;;;;;9.60;6.00;;;;;;;2.23;84.52;102662.73;98345;1267;98039;-77
2023/02/12 08:58:19;;;;;;;7.80;6.10;;;;;;;2.26;84.49;102659.72;104811;1273;98436;-77
2023/02/12 09:01:09;;;;;;;8.90;5.60;;;;;;;2.31;84.46;102657.34;104658;1267;102204;-78
2023/02/12 09:03:55;;;;;;;4.80;2.90;;;;;;;2.32;84.06;102660.84;104954;1272;100541;-78
2023/02/12 09:06:39;;;;;;;5.10;2.90;;;;;;;2.29;83.54;102662.76;105398;1268;98374;-79
2023/02/12 09:09:24;;;;;;;7.00;3.60;;;;;;;2.24;83.25;102669.52;105241;1273;98397;-80
2023/02/12 09:12:09;;;;;;;6.90;3.50;;;;;;;2.21;83.29;102675.36;105982;1267;98462;-81
2023/02/12 09:14:54;;;;;;;5.60;3.30;;;;;;;2.17;83.03;102676.96;105997;1267;102837;-81
2023/02/12 09:17:42;;;;;;;11.00;4.60;;;;;;;2.12;82.71;102678.15;105939;1268;99184;-80
2023/02/12 09:20:26;;;;;;;6.60;4.00;;;;;;;2.12;82.95;102683.95;105902;1270;99603;-81
2023/02/12 09:23:13;;;;;;;14.70;9.80;;;;;;;2.15;83.30;102688.34;105430;1267;97966;-80
2023/02/12 09:25:57;;;;;;;18.10;10.40;;;;;;;2.20;83.57;102688.96;106062;1273;96286;-81
2023/02/12 09:31:43;;;;;;;34.70;16.60;;;;;;;2.24;83.03;102695.29;103987;1273;98154;-79
2023/02/12 09:34:27;;;;;;;10.90;5.90;;;;;;;2.25;82.75;102695.90;105229;1273;98690;-79
2023/02/12 09:37:12;;;;;;;6.30;3.70;;;;;;;2.34;84.12;102693.48;105457;1271;97997;-80
2023/02/12 09:39:57;;;;;;;4.80;3.50;;;;;;;2.60;86.09;102690.65;105306;1272;98156;-80
2023/02/12 09:43:00;;;;;;;6.40;3.90;;;;;;;2.86;85.54;102695.50;105333;1275;103529;-78
2023/02/12 09:46:26;;;;;;;26.60;12.00;;;;;;;3.07;85.60;102705.58;105211;1274;100452;-78
2023/02/12 09:49:42;;;;;;;13.10;5.40;;;;;;;3.30;84.84;102704.27;105162;1276;99270;-79
2023/02/12 09:52:29;;;;;;;8.10;5.20;;;;;;;3.38;83.23;102701.13;105138;1272;98019;-79
2023/02/12 10:01:00;;;;;;;10.20;5.50;;;;;;;3.26;81.21;102698.17;106334;1270;97927;-80
2023/02/12 10:03:49;;;;;;;150.10;72.40;;;;;;;3.18;81.16;102703.04;105040;1276;98550;-78
2023/02/12 10:06:45;;;;;;;34.70;19.70;;;;;;;3.16;80.90;102707.21;105861;1275;97992;-89
2023/02/12 10:09:57;;;;;;;13.20;8.40;;;;;;;3.10;80.91;102700.82;105195;1271;98128;-87
2023/02/12 10:12:52;;;;;;;25.10;16.10;;;;;;;3.12;81.06;102705.16;105284;1271;101336;-85
2023/02/12 10:15:52;;;;;;;17.20;12.90;;;;;;;3.13;81.04;102708.05;104799;1274;99807;-79
2023/02/12 10:19:30;;;;;;;17.60;12.20;;;;;;;3.10;80.77;102704.36;104710;1276;98042;-79
2023/02/12 10:22:31;;;;;;;9.20;6.40;;;;;;;3.11;80.96;102707.15;105999;1266;97903;31
2023/02/12 10:28:37;;;;;;;14.40;7.10;;;;;;;3.11;80.85;102693.73;103895;1276;102604;-80
2023/02/12 10:31:31;;;;;;;7.30;4.20;;;;;;;3.13;80.69;102696.27;104044;1275;99141;-75
2023/02/12 10:34:36;;;;;;;11.60;7.80;;;;;;;3.14;80.80;102694.41;104277;1277;98573;-89
2023/02/12 10:41:00;;;;;;;7.60;4.20;;;;;;;3.11;80.59;102701.86;104651;1279;98029;-82
2023/02/12 10:43:46;;;;;;;8.30;4.30;;;;;;;3.12;80.91;102699.48;104619;1283;102428;-81
2023/02/12 10:46:31;;;;;;;6.00;4.10;;;;;;;3.17;80.88;102696.76;104943;1279;99258;-82
2023/02/12 10:49:18;;;;;;;7.40;3.70;;;;;;;3.20;80.61;102698.19;104738;1279;99655;-81
2023/02/12 10:52:37;;;;;;;6.90;4.00;;;;;;;3.21;80.48;102699.89;105023;1284;98053;-84
2023/02/12 10:55:28;;;;;;;8.20;5.70;;;;;;;3.20;80.29;102699.20;104750;1279;97912;-81
2023/02/12 10:58:18;;;;;;;;;;;;;;;3.21;80.44;102702.71;103938;1282;102783;-74
2023/02/12 11:01:03;;;;;;;8.20;5.10;;;;;;;3.22;80.68;102704.58;104303;1279;100441;-82
2023/02/12 11:03:48;;;;;;;15.00;5.20;;;;;;;3.24;80.71;102701.45;104478;1282;97919;-80
2023/02/12 11:06:33;;;;;;;8.20;4.70;;;;;;;3.26;80.28;102699.04;103932;1282;97976;-77
2023/02/12 11:09:29;;;;;;;9.00;4.60;;;;;;;3.27;80.12;102690.16;103809;1282;98004;-78
2023/02/12 11:12:38;;;;;;;9.50;4.40;;;;;;;3.29;80.45;102683.67;103944;1282;102665;-88
2023/02/12 11:18:31;;;;;;;9.80;4.90;;;;;;;3.38;79.95;102690.05;104677;1283;98538;-86
2023/02/12 11:21:22;;;;;;;10.20;4.70;;;;;;;3.37;79.86;102686.58;105133;1283;98015;-87
2023/02/12 11:24:31;;;;;;;9.90;4.70;;;;;;;3.41;80.13;102688.41;104539;1279;97904;-91
2023/02/12 11:27:33;;;;;;;10.50;6.90;;;;;;;3.45;80.30;102687.48;104061;1280;1725577;-88
2023/02/12 11:30:28;;;;;;;14.60;5.40;;;;;;;3.49;80.31;102685.98;104890;1276;101386;-87
2023/02/12 11:33:35;;;;;;;;;;;;;;;3.48;79.62;102685.52;104785;1280;98180;-85
2023/02/12 11:36:25;;;;;;;11.50;6.20;;;;;;;3.46;79.53;102677.36;104611;1280;98026;-84
2023/02/12 11:39:44;;;;;;;8.70;4.40;;;;;;;3.49;79.68;102669.98;104441;1283;96527;-84
2023/02/12 11:46:51;;;;;;;;;;;;;;;;;;;;;
2023/02/12 11:53:08;;;;;;;11.20;7.50;;;;;;;3.58;79.01;102672.05;105184;1278;97914;-78
2023/02/12 11:58:46;;;;;;;9.70;7.10;;;;;;;3.61;79.13;102670.30;101182;1276;101677;-78
2023/02/12 12:01:34;;;;;;;12.50;7.60;;;;;;;3.62;79.13;102669.89;103874;1276;99298;-76
2023/02/12 12:04:22;;;;;;;12.10;7.00;;;;;;;3.65;79.20;102670.21;104200;1282;98540;-76
2023/02/12 12:07:15;;;;;;;13.50;7.10;;;;;;;3.70;79.47;102669.87;103838;1277;97926;-78
2023/02/12 12:10:09;;;;;;;14.30;8.70;;;;;;;3.75;79.17;102664.31;103857;1276;98449;-78
2023/02/12 12:12:58;;;;;;;10.10;7.70;;;;;;;3.79;78.99;102663.52;103960;1276;102172;-79
2023/02/12 12:22:25;;;;;;;23.00;13.90;;;;;;;3.97;79.88;102650.20;103665;1276;99204;-77
2023/02/12 12:25:22;;;;;;;12.10;7.70;;;;;;;4.06;79.71;102647.02;103582;1276;99632;-79
2023/02/12 12:28:27;;;;;;;13.70;7.10;;;;;;;4.07;79.02;102643.95;103803;1277;101390;-79
2023/02/12 12:31:20;;;;;;;13.10;7.90;;;;;;;4.05;78.86;102637.02;103881;1282;100370;-76
2023/02/12 12:34:19;;;;;;;12.90;8.60;;;;;;;4.02;78.74;102634.33;103811;1282;98053;-78
2023/02/12 12:37:23;;;;;;;10.70;6.90;;;;;;;4.00;78.36;102636.06;103732;1279;97985;-76
2023/02/12 12:40:33;;;;;;;12.20;8.00;;;;;;;3.97;78.43;102634.69;103731;1281;98002;-78
2023/02/12 12:43:43;;;;;;;;;;;;;;;;;;;;;
2023/02/12 12:46:47;;;;;;;9.30;6.70;;;;;;;3.98;79.13;102633.00;104913;1277;101549;-78
2023/02/12 12:49:47;;;;;;;11.40;7.20;;;;;;;3.98;79.02;102637.99;103744;1276;99101;-75
2023/02/12 12:52:44;;;;;;;14.90;9.20;;;;;;;3.98;79.25;102647.69;104287;1276;98042;-77
2023/02/12 12:55:48;;;;;;;12.10;6.50;;;;;;;4.00;79.08;102652.86;103860;1280;99164;-77
2023/02/12 12:58:50;;;;;;;14.50;7.50;;;;;;;3.98;78.59;102653.02;105076;1280;101584;-87
2023/02/12 13:02:04;;;;;;;13.70;7.40;;;;;;;3.92;78.44;102646.63;105084;1276;101494;-80
2023/02/12 13:05:16;;;;;;;12.70;6.90;;;;;;;3.88;78.41;102642.13;104437;1281;98898;-77
2023/02/12 13:08:30;;;;;;;24.50;9.00;;;;;;;3.87;78.49;102642.02;103671;1281;99291;-77
2023/02/12 13:11:29;;;;;;;15.10;8.60;;;;;;;3.86;78.64;102639.39;103809;1280;99216;-79
2023/02/12 13:14:22;;;;;;;15.80;9.40;;;;;;;3.87;78.88;102637.36;103606;1280;101449;-76
2023/02/12 13:17:52;;;;;;;22.30;13.20;;;;;;;3.86;78.51;102637.11;103733;1276;99245;-88
2023/02/12 13:20:54;;;;;;;16.20;11.20;;;;;;;3.81;78.57;102632.14;104466;1276;101272;-77
2023/02/12 13:23:49;;;;;;;14.90;10.60;;;;;;;3.78;78.54;102628.26;103810;1283;97944;-78
2023/02/12 13:26:37;;;;;;;18.80;11.20;;;;;;;3.75;78.66;102628.03;104442;1276;97921;-79
2023/02/12 13:29:34;;;;;;;18.80;11.10;;;;;;;3.77;78.95;102628.50;104069;1276;101416;-79
2023/02/12 13:32:32;;;;;;;43.50;23.40;;;;;;;3.78;78.91;102629.11;103761;1282;99203;-78
2023/02/12 13:35:22;;;;;;;28.70;22.60;;;;;;;3.76;78.92;102629.58;103796;1276;99093;-77
2023/02/12 13:38:15;;;;;;;18.40;12.80;;;;;;;3.75;78.96;102628.58;103925;1276;98040;-78
2023/02/12 13:41:05;;;;;;;16.00;11.50;;;;;;;3.71;78.75;102624.23;103780;1280;98587;-77
2023/02/12 13:44:11;;;;;;;17.10;11.70;;;;;;;3.68;78.82;102625.84;104091;1281;101443;-79
2023/02/12 13:47:10;;;;;;;20.60;15.00;;;;;;;3.66;79.18;102631.95;104137;1281;100469;-78
2023/02/12 13:50:30;;;;;;;17.70;11.70;;;;;;;3.65;78.84;102627.29;104145;1277;98014;-78
2023/02/12 13:53:24;;;;;;;13.30;10.30;;;;;;;3.64;79.09;102631.76;103866;1276;99247;-77
2023/02/12 13:56:28;;;;;;;14.80;9.80;;;;;;;3.64;79.27;102625.25;103860;1276;98669;-77
2023/02/12 13:59:31;;;;;;;14.70;9.80;;;;;;;3.62;79.20;102627.62;103803;1282;102207;-77